Forside
METAR-TAF:

METAR-TAF

Lufthavne :

Nukus, Usbekistan

Breddekreds: 42-28-48N, længdekreds: 059-37-48E, højde: 77 m

Aktuelle vejr

Denne rapport blev lavet for 27 minutter siden, kl. 14:00 UTC
Vind 12 kt fra sydøst
Temperatur 42°C
Fugtighed 13%
Tryk 999 hPa
Sigt 10 km eller mere
ingen skyer under 1500m og ingen cumulonimbus

METAR: UTNN 201400Z 14012KT CAVOK 42/08 Q0999 R15/CLRD60 NOSIG

Tid: 19:27 (14:27 UTC)

Vejrudsigter

Denne rapport blev lavet for 3 timer og 27 minutter siden, kl. 11:00 UTC
Foreløbig gælder fra 20 på 12 UTC til 21 på 12 UTC
Vind 12 kt fra sydsydøst med vindstød på up til 22 kt
Sigt 10 km eller mere
ingen skyer under 1500m og ingen cumulonimbus
Midlertidig
fra 20 på 12 UTC til 20 på 18 UTC
Vind 10 kt fra østsydøst
Midlertidig
fra 21 på 06 UTC til 21 på 12 UTC
Vind 14 kt fra sydsydvest med vindstød på up til 24 kt

TAF: UTNN 201100Z 2012/2112 16012G22KT CAVOK TX42/2111Z TN30/2101Z TEMPO 2012/2018 11010KT TEMPO 2106/2112 21014G24KT

Vejrobservationer og prognoser fra mere end 4000 lufthavne (METAR og TAF).

De gule og røde prikker repræsenterer de meteorologiske stationer.

Flyt musen over at se navnet på stationen.

Så klik over at se vejr observationer og prognoser.

At skifte det kort: Klik på de grønne knapper med et sort kors for at zoome ind; på den grønne knap med en bindestreg for at zoome ud; eller på de grønne pile for tilstødende kort.


METAR-TAF: